Sloman Themis — 9HA3701 — position and weather

sailwx.info

Track history (hours):
 
Tides and Currents Weather Stations Pressure Air Temp Water Temp Dewpoint Dewpoint Depression Visibility Wind Speed Wind Dir Waves Ship Positions

Sloman Themis

Last reported at 2018-Jun-24 14:29 UTC. Time now 2018-Jun-25 17:37 UTC.
Position N 36°50' E 013°09'.

Length 171 m; draft 11.6 m.

Type: Tanker. MMSI: 229899000.

Date/timePositionNaut miles runAvg speedWind from/ knotsBaromVisibWave heightAir tempDewpointWater temp
2018-Jun-24 14:29N 36°50' E 013°09'2512.2
2018-Jun-24 12:24N 36°41' E 013°39'1012.4
2018-Jun-24 11:35N 36°38' E 013°51'212.3
2018-Jun-24 11:25N 36°38' E 013°54'512.3
2018-Jun-24 11:00N 36°36' E 013°60'612.0
2018-Jun-24 10:29N 36°34' E 014°07'612.0
2018-Jun-24 10:00N 36°32' E 014°14'612.0
2018-Jun-24 09:29N 36°30' E 014°21'612.0
2018-Jun-24 09:00N 36°28' E 014°28'45311.6
2018-Jun-22 18:04N 36°39' E 023°52'111.8
2018-Jun-22 18:00N 36°40' E 023°53'612.0
2018-Jun-22 17:30N 36°44' E 023°58'811.8
2018-Jun-22 16:52N 36°49' E 024°05'412.0
2018-Jun-22 16:30N 36°54' E 024°06'812.0
2018-Jun-22 15:50N 37°01' E 024°09'712.1
2018-Jun-22 15:16N 37°08' E 024°11'312.1
2018-Jun-22 15:00N 37°11' E 024°12'612.3
2018-Jun-22 14:30N 37°17' E 024°14'17312.2
2018-Jun-22 00:21N 39°53' E 025°50'513.0
2018-Jun-21 23:58N 39°57' E 025°54'171 5.2
2018-Jun-20 15:13N 41°29' E 029°04'1 3.0
2018-Jun-20 15:00N 41°30' E 029°04'0 0.2
2018-Jun-20 13:55N 41°30' E 029°04'2 3.7
2018-Jun-20 13:19N 41°28' E 029°06'15 1.2
2018-Jun-20 00:57N 41°31' E 029°26'2411.9
2018-Jun-19 22:57N 41°42' E 029°55'512.2
2018-Jun-19 22:30N 41°44' E 030°01'612.2
2018-Jun-19 22:00N 41°47' E 030°09'612.1
2018-Jun-19 21:30N 41°49' E 030°16'612.2
2018-Jun-19 21:00N 41°52' E 030°23'612.1
2018-Jun-19 20:30N 41°55' E 030°30'612.1
2018-Jun-19 20:00N 41°58' E 030°38'612.1
2018-Jun-19 19:30N 42°00' E 030°45'612.1
2018-Jun-19 19:00N 42°03' E 030°52'612.2
2018-Jun-19 18:30N 42°06' E 030°60'612.3
2018-Jun-19 18:00N 42°09' E 031°07'712.3
2018-Jun-19 17:26N 42°12' E 031°16'612.2
2018-Jun-19 16:56N 42°14' E 031°23'512.1
2018-Jun-19 16:30N 42°17' E 031°29'2412.0
2018-Jun-19 14:32N 42°27' E 031°58'112.0
2018-Jun-19 14:27N 42°28' E 031°59'612.0
2018-Jun-19 13:57N 42°30' E 032°07'25112.1
2018-Jun-18 17:13N 44°23' E 037°16'312.1
2018-Jun-18 16:58N 44°24' E 037°20'612.1
2018-Jun-18 16:30N 44°27' E 037°27'612.2
2018-Jun-18 16:00N 44°30' E 037°35'612.2
2018-Jun-18 15:30N 44°32' E 037°42'612.0
2018-Jun-18 15:00N 44°36' E 037°48'4 8.6
2018-Jun-18 14:30N 44°41' E 037°50'2 3.8
2018-Jun-18 13:58N 44°43' E 037°50'0 0.0
2018-Jun-18 13:28N 44°43' E 037°50'0 0.0
2018-Jun-18 12:58N 44°43' E 037°50'0 0.0
2018-Jun-18 12:28N 44°43' E 037°50'0 0.0
2018-Jun-18 11:58N 44°43' E 037°50'0 0.0
2018-Jun-18 11:25N 44°43' E 037°50'0 0.0
2018-Jun-18 10:58N 44°43' E 037°50'0 0.0
2018-Jun-18 10:28N 44°43' E 037°50'0 0.0
2018-Jun-18 09:58N 44°43' E 037°50'0 0.0
2018-Jun-18 09:28N 44°43' E 037°50'0 0.0
2018-Jun-18 08:58N 44°43' E 037°50'0 0.0
2018-Jun-18 08:28N 44°43' E 037°50'0 0.0
2018-Jun-18 07:58N 44°43' E 037°50'0 0.0
2018-Jun-18 07:28N 44°43' E 037°50'0 0.0
2018-Jun-18 06:58N 44°43' E 037°50'0 0.0
2018-Jun-18 06:28N 44°43' E 037°50'0 0.0
2018-Jun-18 05:58N 44°43' E 037°50'0 0.0
2018-Jun-18 05:28N 44°43' E 037°50'0 0.0
2018-Jun-18 04:58N 44°43' E 037°50'0 0.0
2018-Jun-18 04:28N 44°43' E 037°50'0 0.0
2018-Jun-18 03:58N 44°43' E 037°50'0 0.0
2018-Jun-18 03:28N 44°43' E 037°50'0 0.0
2018-Jun-18 02:58N 44°43' E 037°50'0 0.0
2018-Jun-18 02:28N 44°43' E 037°50'0 0.0
2018-Jun-18 01:58N 44°43' E 037°50'0 0.0
2018-Jun-18 01:28N 44°43' E 037°50'0 0.0
2018-Jun-18 00:58N 44°43' E 037°50'0 0.0
2018-Jun-18 00:28N 44°43' E 037°50'0 0.0
2018-Jun-17 23:58N 44°43' E 037°50'0 0.0
2018-Jun-17 23:28N 44°43' E 037°50'0 0.0
2018-Jun-17 22:58N 44°43' E 037°50'0 0.0
2018-Jun-17 22:28N 44°43' E 037°50'0 0.0
2018-Jun-17 21:58N 44°43' E 037°50'0 0.0
2018-Jun-17 21:28N 44°43' E 037°50'0 0.0
2018-Jun-17 21:01N 44°43' E 037°50'0 0.0
2018-Jun-17 20:31N 44°43' E 037°50'0 0.0
2018-Jun-17 20:00N 44°43' E 037°50'0 0.0
2018-Jun-17 19:30N 44°43' E 037°50'0 0.0
2018-Jun-17 19:00N 44°43' E 037°50'0 0.0
2018-Jun-17 18:30N 44°43' E 037°50'0 0.0
2018-Jun-17 18:00N 44°43' E 037°50'0 0.0
2018-Jun-17 17:30N 44°43' E 037°50'0 0.0
2018-Jun-17 17:00N 44°43' E 037°50'0 0.0
2018-Jun-17 16:30N 44°43' E 037°50'0 0.0
2018-Jun-17 16:00N 44°43' E 037°50'0 0.0
2018-Jun-17 15:27N 44°43' E 037°50'0 0.0
2018-Jun-17 15:00N 44°43' E 037°50'0 0.0
2018-Jun-17 14:30N 44°43' E 037°50'0 0.0
2018-Jun-17 14:00N 44°43' E 037°50'0 0.0
2018-Jun-17 13:30N 44°43' E 037°50'0 0.0
2018-Jun-17 13:00N 44°43' E 037°50'0 0.0
2018-Jun-17 12:30N 44°43' E 037°50'0 0.0
2018-Jun-17 12:00N 44°43' E 037°50'0 0.0
2018-Jun-17 11:30N 44°43' E 037°50'0 0.0
2018-Jun-17 11:00N 44°43' E 037°50'0 0.0
2018-Jun-17 10:30N 44°43' E 037°50'0 0.0
2018-Jun-17 10:00N 44°43' E 037°50'0 0.0
2018-Jun-17 09:30N 44°43' E 037°50'0 0.0
2018-Jun-17 09:00N 44°43' E 037°50'0 0.0
2018-Jun-17 08:30N 44°43' E 037°50'0 0.0
2018-Jun-17 08:00N 44°43' E 037°50'0 0.0
2018-Jun-17 07:30N 44°43' E 037°50'0 0.0
2018-Jun-17 06:57N 44°43' E 037°50'0 0.0
2018-Jun-17 06:30N 44°43' E 037°50'0 0.0
2018-Jun-17 06:00N 44°43' E 037°50'0 0.0
2018-Jun-17 05:30N 44°43' E 037°50'0 0.0
2018-Jun-17 05:00N 44°43' E 037°50'0 0.0
2018-Jun-17 04:30N 44°43' E 037°50'0 0.0
2018-Jun-17 04:00N 44°43' E 037°50'0 0.0
2018-Jun-17 03:30N 44°43' E 037°50'0 0.0
2018-Jun-17 03:00N 44°43' E 037°50'0 0.0
2018-Jun-17 02:30N 44°43' E 037°50'0 0.0
2018-Jun-17 02:00N 44°43' E 037°50'0 0.0
2018-Jun-17 01:30N 44°43' E 037°50'0 0.0
2018-Jun-17 01:00N 44°43' E 037°50'0 0.0
2018-Jun-17 00:30N 44°43' E 037°50'0 0.0
2018-Jun-17 00:00N 44°43' E 037°50'0 0.0
2018-Jun-16 23:30N 44°43' E 037°50'0 0.0
2018-Jun-16 23:00N 44°43' E 037°50'0 0.0
2018-Jun-16 22:30N 44°43' E 037°50'0 0.0
2018-Jun-16 22:00N 44°43' E 037°50'0 0.0
2018-Jun-16 21:30N 44°43' E 037°50'0 0.0
2018-Jun-16 21:00N 44°43' E 037°50'0 0.0
2018-Jun-16 20:30N 44°43' E 037°50'0 0.0
2018-Jun-16 20:00N 44°43' E 037°50'0 0.0
2018-Jun-16 19:30N 44°43' E 037°50'0 0.0
2018-Jun-16 19:00N 44°43' E 037°50'0 0.0
2018-Jun-16 18:30N 44°43' E 037°50'0 0.0
2018-Jun-16 18:00N 44°43' E 037°50'0 0.0
2018-Jun-16 17:30N 44°43' E 037°50'0 0.0
2018-Jun-16 17:00N 44°43' E 037°50'0 0.0
2018-Jun-16 16:30N 44°43' E 037°50'0 0.0
2018-Jun-16 16:00N 44°43' E 037°50'0 0.0
2018-Jun-16 15:30N 44°43' E 037°50'0 0.0
2018-Jun-16 15:00N 44°43' E 037°50'0 0.0
2018-Jun-16 14:30N 44°43' E 037°50'0 0.0
2018-Jun-16 14:00N 44°43' E 037°50'0 0.0
2018-Jun-16 13:30N 44°43' E 037°50'0 0.0
2018-Jun-16 13:00N 44°43' E 037°50'2 3.0
2018-Jun-16 12:30N 44°41' E 037°50'3 6.7
2018-Jun-16 12:00N 44°38' E 037°51'3 6.8
2018-Jun-16 11:30N 44°34' E 037°51'510.5
2018-Jun-16 11:00N 44°29' E 037°50'4 7.9
2018-Jun-16 10:30N 44°25' E 037°49'3 4.7
2018-Jun-16 09:55N 44°23' E 037°49'0 0.1
2018-Jun-16 09:28N 44°23' E 037°49'0 0.1
2018-Jun-16 07:01N 44°23' E 037°48'0 0.0
2018-Jun-16 07:00N 44°23' E 037°48'0 0.3
2018-Jun-16 06:20N 44°23' E 037°48'0 0.3
2018-Jun-16 06:00N 44°23' E 037°48'0 0.3
2018-Jun-16 05:25N 44°23' E 037°48'0 0.3
2018-Jun-16 04:59N 44°23' E 037°48'0 0.4
2018-Jun-16 03:41N 44°23' E 037°47'0 0.4
2018-Jun-16 03:30N 44°23' E 037°47'0 0.4
2018-Jun-16 02:58N 44°24' E 037°47'0 0.5
2018-Jun-16 02:28N 44°24' E 037°46'0 0.6
2018-Jun-16 02:00N 44°24' E 037°46'0 0.6
2018-Jun-16 01:29N 44°24' E 037°46'0 0.6
2018-Jun-16 00:58N 44°24' E 037°45'0 0.6
2018-Jun-16 00:26N 44°24' E 037°45'0 0.7
2018-Jun-15 23:59N 44°24' E 037°44'0 0.7
2018-Jun-15 23:24N 44°24' E 037°44'0 0.8
2018-Jun-15 22:55N 44°23' E 037°43'0 0.7
2018-Jun-15 22:29N 44°23' E 037°43'1 0.8
2018-Jun-15 21:50N 44°23' E 037°42'0 0.8
2018-Jun-15 21:24N 44°23' E 037°42'0 0.8
2018-Jun-15 20:59N 44°23' E 037°41'0 0.8
2018-Jun-15 20:30N 44°22' E 037°41'0 0.7
2018-Jun-15 19:49N 44°22' E 037°40'0 0.5
2018-Jun-15 19:02N 44°22' E 037°40'0 0.5
2018-Jun-15 19:00N 44°22' E 037°40'0 0.5
2018-Jun-15 18:22N 44°22' E 037°39'0 0.4
2018-Jun-15 17:59N 44°22' E 037°39'0 0.3
2018-Jun-15 17:21N 44°22' E 037°39'0 0.2
2018-Jun-15 17:00N 44°21' E 037°39'0 0.0
2018-Jun-15 15:26N 44°22' E 037°39'0 0.2
2018-Jun-15 15:00N 44°22' E 037°39'0 0.3
2018-Jun-15 14:30N 44°22' E 037°39'0 0.4
2018-Jun-15 13:46N 44°22' E 037°39'0 0.4
2018-Jun-15 13:30N 44°22' E 037°39'0 0.5
2018-Jun-15 13:00N 44°22' E 037°39'0 0.6
2018-Jun-15 12:21N 44°23' E 037°39'0 0.6
2018-Jun-15 11:59N 44°23' E 037°38'1 0.6
2018-Jun-15 10:44N 44°23' E 037°37'0 0.6
2018-Jun-15 10:15N 44°23' E 037°37'0 0.6
2018-Jun-15 10:00N 44°23' E 037°37'0 0.5
2018-Jun-15 09:24N 44°23' E 037°36'0 0.5
2018-Jun-15 09:00N 44°23' E 037°36'0 0.6
2018-Jun-15 08:16N 44°23' E 037°36'0 0.6
2018-Jun-15 07:51N 44°23' E 037°35'0 0.6
2018-Jun-15 07:29N 44°23' E 037°35'1 0.7
2018-Jun-15 06:40N 44°22' E 037°34'0 0.7
2018-Jun-15 06:20N 44°22' E 037°34'0 0.7
2018-Jun-15 06:00N 44°22' E 037°34'1 0.8
2018-Jun-15 05:08N 44°21' E 037°33'0 0.8
2018-Jun-15 04:46N 44°21' E 037°33'0 0.8
2018-Jun-15 04:30N 44°21' E 037°33'0 0.8
2018-Jun-15 04:00N 44°21' E 037°33'0 0.8
2018-Jun-15 03:30N 44°20' E 037°33'0 0.9
2018-Jun-15 03:00N 44°20' E 037°33'0 0.8
2018-Jun-15 02:30N 44°19' E 037°33'0 0.7
2018-Jun-15 02:00N 44°19' E 037°33'0 0.7
2018-Jun-15 01:30N 44°19' E 037°33'1 0.4
2018-Jun-14 21:54N 44°17' E 037°34'2 0.3
2018-Jun-14 16:35N 44°19' E 037°34'0 0.7
2018-Jun-14 16:30N 44°19' E 037°34'0 0.7
2018-Jun-14 15:58N 44°19' E 037°34'0 0.7
2018-Jun-14 15:23N 44°20' E 037°34'0 0.6
2018-Jun-14 15:00N 44°20' E 037°34'  
Track history (hours):
 
Tides and Currents Weather Stations Pressure Air Temp Water Temp Dewpoint Dewpoint Depression Visibility Wind Speed Wind Dir Waves Ship Positions

Sloman Themis

Last reported at 2018-Jun-24 14:29 UTC. Time now 2018-Jun-25 17:37 UTC.
Position N 36°50' E 013°09'.

Length 171 m; draft 11.6 m.

Type: Tanker. MMSI: 229899000.

Date/timePositionNaut miles runAvg speedWind from/ knotsBaromVisibWave heightAir tempDewpointWater temp
2018-Jun-24 14:29N 36°50' E 013°09'2512.2
2018-Jun-24 12:24N 36°41' E 013°39'1012.4
2018-Jun-24 11:35N 36°38' E 013°51'212.3
2018-Jun-24 11:25N 36°38' E 013°54'512.3
2018-Jun-24 11:00N 36°36' E 013°60'612.0
2018-Jun-24 10:29N 36°34' E 014°07'612.0
2018-Jun-24 10:00N 36°32' E 014°14'612.0
2018-Jun-24 09:29N 36°30' E 014°21'612.0
2018-Jun-24 09:00N 36°28' E 014°28'45311.6
2018-Jun-22 18:04N 36°39' E 023°52'111.8
2018-Jun-22 18:00N 36°40' E 023°53'612.0
2018-Jun-22 17:30N 36°44' E 023°58'811.8
2018-Jun-22 16:52N 36°49' E 024°05'412.0
2018-Jun-22 16:30N 36°54' E 024°06'812.0
2018-Jun-22 15:50N 37°01' E 024°09'712.1
2018-Jun-22 15:16N 37°08' E 024°11'312.1
2018-Jun-22 15:00N 37°11' E 024°12'612.3
2018-Jun-22 14:30N 37°17' E 024°14'17312.2
2018-Jun-22 00:21N 39°53' E 025°50'513.0
2018-Jun-21 23:58N 39°57' E 025°54'171 5.2
2018-Jun-20 15:13N 41°29' E 029°04'1 3.0
2018-Jun-20 15:00N 41°30' E 029°04'0 0.2
2018-Jun-20 13:55N 41°30' E 029°04'2 3.7
2018-Jun-20 13:19N 41°28' E 029°06'15 1.2
2018-Jun-20 00:57N 41°31' E 029°26'2411.9
2018-Jun-19 22:57N 41°42' E 029°55'512.2
2018-Jun-19 22:30N 41°44' E 030°01'612.2
2018-Jun-19 22:00N 41°47' E 030°09'612.1
2018-Jun-19 21:30N 41°49' E 030°16'612.2
2018-Jun-19 21:00N 41°52' E 030°23'612.1
2018-Jun-19 20:30N 41°55' E 030°30'612.1
2018-Jun-19 20:00N 41°58' E 030°38'612.1
2018-Jun-19 19:30N 42°00' E 030°45'612.1
2018-Jun-19 19:00N 42°03' E 030°52'612.2
2018-Jun-19 18:30N 42°06' E 030°60'612.3
2018-Jun-19 18:00N 42°09' E 031°07'712.3
2018-Jun-19 17:26N 42°12' E 031°16'612.2
2018-Jun-19 16:56N 42°14' E 031°23'512.1
2018-Jun-19 16:30N 42°17' E 031°29'2412.0
2018-Jun-19 14:32N 42°27' E 031°58'112.0
2018-Jun-19 14:27N 42°28' E 031°59'612.0
2018-Jun-19 13:57N 42°30' E 032°07'25112.1
2018-Jun-18 17:13N 44°23' E 037°16'312.1
2018-Jun-18 16:58N 44°24' E 037°20'612.1
2018-Jun-18 16:30N 44°27' E 037°27'612.2
2018-Jun-18 16:00N 44°30' E 037°35'612.2
2018-Jun-18 15:30N 44°32' E 037°42'612.0
2018-Jun-18 15:00N 44°36' E 037°48'4 8.6
2018-Jun-18 14:30N 44°41' E 037°50'2 3.8
2018-Jun-18 13:58N 44°43' E 037°50'0 0.0
2018-Jun-18 13:28N 44°43' E 037°50'0 0.0
2018-Jun-18 12:58N 44°43' E 037°50'0 0.0
2018-Jun-18 12:28N 44°43' E 037°50'0 0.0
2018-Jun-18 11:58N 44°43' E 037°50'0 0.0
2018-Jun-18 11:25N 44°43' E 037°50'0 0.0
2018-Jun-18 10:58N 44°43' E 037°50'0 0.0
2018-Jun-18 10:28N 44°43' E 037°50'0 0.0
2018-Jun-18 09:58N 44°43' E 037°50'0 0.0
2018-Jun-18 09:28N 44°43' E 037°50'0 0.0
2018-Jun-18 08:58N 44°43' E 037°50'0 0.0
2018-Jun-18 08:28N 44°43' E 037°50'0 0.0
2018-Jun-18 07:58N 44°43' E 037°50'0 0.0
2018-Jun-18 07:28N 44°43' E 037°50'0 0.0
2018-Jun-18 06:58N 44°43' E 037°50'0 0.0
2018-Jun-18 06:28N 44°43' E 037°50'0 0.0
2018-Jun-18 05:58N 44°43' E 037°50'0 0.0
2018-Jun-18 05:28N 44°43' E 037°50'0 0.0
2018-Jun-18 04:58N 44°43' E 037°50'0 0.0
2018-Jun-18 04:28N 44°43' E 037°50'0 0.0
2018-Jun-18 03:58N 44°43' E 037°50'0 0.0
2018-Jun-18 03:28N 44°43' E 037°50'0 0.0
2018-Jun-18 02:58N 44°43' E 037°50'0 0.0
2018-Jun-18 02:28N 44°43' E 037°50'0 0.0
2018-Jun-18 01:58N 44°43' E 037°50'0 0.0
2018-Jun-18 01:28N 44°43' E 037°50'0 0.0
2018-Jun-18 00:58N 44°43' E 037°50'0 0.0
2018-Jun-18 00:28N 44°43' E 037°50'0 0.0
2018-Jun-17 23:58N 44°43' E 037°50'0 0.0
2018-Jun-17 23:28N 44°43' E 037°50'0 0.0
2018-Jun-17 22:58N 44°43' E 037°50'0 0.0
2018-Jun-17 22:28N 44°43' E 037°50'0 0.0
2018-Jun-17 21:58N 44°43' E 037°50'0 0.0
2018-Jun-17 21:28N 44°43' E 037°50'0 0.0
2018-Jun-17 21:01N 44°43' E 037°50'0 0.0
2018-Jun-17 20:31N 44°43' E 037°50'0 0.0
2018-Jun-17 20:00N 44°43' E 037°50'0 0.0
2018-Jun-17 19:30N 44°43' E 037°50'0 0.0
2018-Jun-17 19:00N 44°43' E 037°50'0 0.0
2018-Jun-17 18:30N 44°43' E 037°50'0 0.0
2018-Jun-17 18:00N 44°43' E 037°50'0 0.0
2018-Jun-17 17:30N 44°43' E 037°50'0 0.0
2018-Jun-17 17:00N 44°43' E 037°50'0 0.0
2018-Jun-17 16:30N 44°43' E 037°50'0 0.0
2018-Jun-17 16:00N 44°43' E 037°50'0 0.0
2018-Jun-17 15:27N 44°43' E 037°50'0 0.0
2018-Jun-17 15:00N 44°43' E 037°50'0 0.0
2018-Jun-17 14:30N 44°43' E 037°50'0 0.0
2018-Jun-17 14:00N 44°43' E 037°50'0 0.0
2018-Jun-17 13:30N 44°43' E 037°50'0 0.0
2018-Jun-17 13:00N 44°43' E 037°50'0 0.0
2018-Jun-17 12:30N 44°43' E 037°50'0 0.0
2018-Jun-17 12:00N 44°43' E 037°50'0 0.0
2018-Jun-17 11:30N 44°43' E 037°50'0 0.0
2018-Jun-17 11:00N 44°43' E 037°50'0 0.0
2018-Jun-17 10:30N 44°43' E 037°50'0 0.0
2018-Jun-17 10:00N 44°43' E 037°50'0 0.0
2018-Jun-17 09:30N 44°43' E 037°50'0 0.0
2018-Jun-17 09:00N 44°43' E 037°50'0 0.0
2018-Jun-17 08:30N 44°43' E 037°50'0 0.0
2018-Jun-17 08:00N 44°43' E 037°50'0 0.0
2018-Jun-17 07:30N 44°43' E 037°50'0 0.0
2018-Jun-17 06:57N 44°43' E 037°50'0 0.0
2018-Jun-17 06:30N 44°43' E 037°50'0 0.0
2018-Jun-17 06:00N 44°43' E 037°50'0 0.0
2018-Jun-17 05:30N 44°43' E 037°50'0 0.0
2018-Jun-17 05:00N 44°43' E 037°50'0 0.0
2018-Jun-17 04:30N 44°43' E 037°50'0 0.0
2018-Jun-17 04:00N 44°43' E 037°50'0 0.0
2018-Jun-17 03:30N 44°43' E 037°50'0 0.0
2018-Jun-17 03:00N 44°43' E 037°50'0 0.0
2018-Jun-17 02:30N 44°43' E 037°50'0 0.0
2018-Jun-17 02:00N 44°43' E 037°50'0 0.0
2018-Jun-17 01:30N 44°43' E 037°50'0 0.0
2018-Jun-17 01:00N 44°43' E 037°50'0 0.0
2018-Jun-17 00:30N 44°43' E 037°50'0 0.0
2018-Jun-17 00:00N 44°43' E 037°50'0 0.0
2018-Jun-16 23:30N 44°43' E 037°50'0 0.0
2018-Jun-16 23:00N 44°43' E 037°50'0 0.0
2018-Jun-16 22:30N 44°43' E 037°50'0 0.0
2018-Jun-16 22:00N 44°43' E 037°50'0 0.0
2018-Jun-16 21:30N 44°43' E 037°50'0 0.0
2018-Jun-16 21:00N 44°43' E 037°50'0 0.0
2018-Jun-16 20:30N 44°43' E 037°50'0 0.0
2018-Jun-16 20:00N 44°43' E 037°50'0 0.0
2018-Jun-16 19:30N 44°43' E 037°50'0 0.0
2018-Jun-16 19:00N 44°43' E 037°50'0 0.0
2018-Jun-16 18:30N 44°43' E 037°50'0 0.0
2018-Jun-16 18:00N 44°43' E 037°50'0 0.0
2018-Jun-16 17:30N 44°43' E 037°50'0 0.0
2018-Jun-16 17:00N 44°43' E 037°50'0 0.0
2018-Jun-16 16:30N 44°43' E 037°50'0 0.0
2018-Jun-16 16:00N 44°43' E 037°50'0 0.0
2018-Jun-16 15:30N 44°43' E 037°50'0 0.0
2018-Jun-16 15:00N 44°43' E 037°50'0 0.0
2018-Jun-16 14:30N 44°43' E 037°50'0 0.0
2018-Jun-16 14:00N 44°43' E 037°50'0 0.0
2018-Jun-16 13:30N 44°43' E 037°50'0 0.0
2018-Jun-16 13:00N 44°43' E 037°50'2 3.0
2018-Jun-16 12:30N 44°41' E 037°50'3 6.7
2018-Jun-16 12:00N 44°38' E 037°51'3 6.8
2018-Jun-16 11:30N 44°34' E 037°51'510.5
2018-Jun-16 11:00N 44°29' E 037°50'4 7.9
2018-Jun-16 10:30N 44°25' E 037°49'3 4.7
2018-Jun-16 09:55N 44°23' E 037°49'0 0.1
2018-Jun-16 09:28N 44°23' E 037°49'0 0.1
2018-Jun-16 07:01N 44°23' E 037°48'0 0.0
2018-Jun-16 07:00N 44°23' E 037°48'0 0.3
2018-Jun-16 06:20N 44°23' E 037°48'0 0.3
2018-Jun-16 06:00N 44°23' E 037°48'0 0.3
2018-Jun-16 05:25N 44°23' E 037°48'0 0.3
2018-Jun-16 04:59N 44°23' E 037°48'0 0.4
2018-Jun-16 03:41N 44°23' E 037°47'0 0.4
2018-Jun-16 03:30N 44°23' E 037°47'0 0.4
2018-Jun-16 02:58N 44°24' E 037°47'0 0.5
2018-Jun-16 02:28N 44°24' E 037°46'0 0.6
2018-Jun-16 02:00N 44°24' E 037°46'0 0.6
2018-Jun-16 01:29N 44°24' E 037°46'0 0.6
2018-Jun-16 00:58N 44°24' E 037°45'0 0.6
2018-Jun-16 00:26N 44°24' E 037°45'0 0.7
2018-Jun-15 23:59N 44°24' E 037°44'0 0.7
2018-Jun-15 23:24N 44°24' E 037°44'0 0.8
2018-Jun-15 22:55N 44°23' E 037°43'0 0.7
2018-Jun-15 22:29N 44°23' E 037°43'1 0.8
2018-Jun-15 21:50N 44°23' E 037°42'0 0.8
2018-Jun-15 21:24N 44°23' E 037°42'0 0.8
2018-Jun-15 20:59N 44°23' E 037°41'0 0.8
2018-Jun-15 20:30N 44°22' E 037°41'0 0.7
2018-Jun-15 19:49N 44°22' E 037°40'0 0.5
2018-Jun-15 19:02N 44°22' E 037°40'0 0.5
2018-Jun-15 19:00N 44°22' E 037°40'0 0.5
2018-Jun-15 18:22N 44°22' E 037°39'0 0.4
2018-Jun-15 17:59N 44°22' E 037°39'0 0.3
2018-Jun-15 17:21N 44°22' E 037°39'0 0.2
2018-Jun-15 17:00N 44°21' E 037°39'0 0.0
2018-Jun-15 15:26N 44°22' E 037°39'0 0.2
2018-Jun-15 15:00N 44°22' E 037°39'0 0.3
2018-Jun-15 14:30N 44°22' E 037°39'0 0.4
2018-Jun-15 13:46N 44°22' E 037°39'0 0.4
2018-Jun-15 13:30N 44°22' E 037°39'0 0.5
2018-Jun-15 13:00N 44°22' E 037°39'0 0.6
2018-Jun-15 12:21N 44°23' E 037°39'0 0.6
2018-Jun-15 11:59N 44°23' E 037°38'1 0.6
2018-Jun-15 10:44N 44°23' E 037°37'0 0.6
2018-Jun-15 10:15N 44°23' E 037°37'0 0.6
2018-Jun-15 10:00N 44°23' E 037°37'0 0.5
2018-Jun-15 09:24N 44°23' E 037°36'0 0.5
2018-Jun-15 09:00N 44°23' E 037°36'0 0.6
2018-Jun-15 08:16N 44°23' E 037°36'0 0.6
2018-Jun-15 07:51N 44°23' E 037°35'0 0.6
2018-Jun-15 07:29N 44°23' E 037°35'1 0.7
2018-Jun-15 06:40N 44°22' E 037°34'0 0.7
2018-Jun-15 06:20N 44°22' E 037°34'0 0.7
2018-Jun-15 06:00N 44°22' E 037°34'1 0.8
2018-Jun-15 05:08N 44°21' E 037°33'0 0.8
2018-Jun-15 04:46N 44°21' E 037°33'0 0.8
2018-Jun-15 04:30N 44°21' E 037°33'0 0.8
2018-Jun-15 04:00N 44°21' E 037°33'0 0.8
2018-Jun-15 03:30N 44°20' E 037°33'0 0.9
2018-Jun-15 03:00N 44°20' E 037°33'0 0.8
2018-Jun-15 02:30N 44°19' E 037°33'0 0.7
2018-Jun-15 02:00N 44°19' E 037°33'0 0.7
2018-Jun-15 01:30N 44°19' E 037°33'1 0.4
2018-Jun-14 21:54N 44°17' E 037°34'2 0.3
2018-Jun-14 16:35N 44°19' E 037°34'0 0.7
2018-Jun-14 16:30N 44°19' E 037°34'0 0.7
2018-Jun-14 15:58N 44°19' E 037°34'0 0.7
2018-Jun-14 15:23N 44°20' E 037°34'0 0.6
2018-Jun-14 15:00N 44°20' E 037°34'  

Dump ship's entire track history